createdAt,value
2022-09-21T00:01:36.371Z,14.40
2022-09-21T00:04:05.666Z,14.40
2022-09-21T00:06:36.588Z,14.40
2022-09-21T00:09:06.206Z,14.28
2022-09-21T00:11:35.664Z,14.37
2022-09-21T00:14:07.371Z,14.35
2022-09-21T00:16:37.344Z,14.34
2022-09-21T00:19:06.232Z,14.33
2022-09-21T00:21:35.339Z,14.32
2022-09-21T00:24:04.476Z,14.30
2022-09-21T00:26:32.558Z,14.29
2022-09-21T00:29:02.410Z,14.28
2022-09-21T00:31:32.323Z,14.27
2022-09-21T00:34:03.693Z,14.24
2022-09-21T00:36:31.884Z,14.26
2022-09-21T00:39:02.147Z,14.24
2022-09-21T00:41:31.942Z,14.23
2022-09-21T00:44:24.931Z,14.21
2022-09-21T00:46:55.126Z,14.20
2022-09-21T00:49:25.560Z,14.20
2022-09-21T00:51:55.117Z,14.18
2022-09-21T00:54:28.244Z,14.18
2022-09-21T00:56:59.853Z,14.15
2022-09-21T00:59:30.223Z,14.14
2022-09-21T01:01:59.872Z,14.13
2022-09-21T01:04:30.513Z,14.12
2022-09-21T01:07:04.161Z,14.11
2022-09-21T01:09:33.007Z,14.12
2022-09-21T01:12:12.344Z,14.11
2022-09-21T01:15:11.169Z,14.11
2022-09-21T01:17:47.636Z,14.12
2022-09-21T01:20:41.303Z,14.12
2022-09-21T01:23:25.578Z,14.12
2022-09-21T01:26:05.732Z,14.11
2022-09-21T01:28:58.222Z,14.10
2022-09-21T01:31:29.802Z,14.10
2022-09-21T01:34:03.721Z,14.09
2022-09-21T01:36:34.533Z,14.10
2022-09-21T01:39:05.981Z,14.09
2022-09-21T01:41:36.274Z,14.08
2022-09-21T01:44:10.127Z,14.08
2022-09-21T01:46:39.256Z,14.07
2022-09-21T01:49:12.525Z,14.06
2022-09-21T01:51:45.305Z,14.05
2022-09-21T01:54:20.625Z,13.95
2022-09-21T01:56:53.957Z,14.02
2022-09-21T01:59:32.761Z,13.98
2022-09-21T02:02:06.352Z,14.00
2022-09-21T02:04:36.315Z,13.99
2022-09-21T02:07:04.148Z,13.99
2022-09-21T02:09:32.255Z,13.94
2022-09-21T02:12:02.171Z,13.96
2022-09-21T02:14:33.626Z,13.88
2022-09-21T02:17:11.789Z,13.95
2022-09-21T02:19:48.194Z,13.94
2022-09-21T02:22:25.014Z,13.94
2022-09-21T02:24:56.003Z,13.92
2022-09-21T02:27:32.676Z,13.91
2022-09-21T02:30:09.000Z,13.91
2022-09-21T02:32:46.904Z,13.89
2022-09-21T02:35:21.602Z,13.88
2022-09-21T02:37:56.052Z,13.87
2022-09-21T02:40:30.721Z,13.86
2022-09-21T02:43:03.287Z,13.84
2022-09-21T02:45:36.162Z,13.85
2022-09-21T02:48:09.208Z,13.82
2022-09-21T02:50:42.783Z,13.81
2022-09-21T02:53:12.457Z,13.81
2022-09-21T02:55:41.141Z,13.81
2022-09-21T02:58:13.234Z,13.80
2022-09-21T03:00:42.412Z,13.79
2022-09-21T03:03:18.335Z,13.66
2022-09-21T03:05:48.880Z,13.70
2022-09-21T03:08:16.721Z,13.76
2022-09-21T03:10:44.973Z,13.76
2022-09-21T03:13:13.197Z,13.76
2022-09-21T03:15:42.638Z,13.74
2022-09-21T03:18:11.353Z,13.73
2022-09-21T03:20:40.179Z,13.73
2022-09-21T03:23:08.344Z,13.73
2022-09-21T03:25:36.416Z,13.73
2022-09-21T03:28:04.111Z,13.73
2022-09-21T03:30:32.982Z,13.72
2022-09-21T03:33:02.056Z,13.70
2022-09-21T03:35:30.082Z,13.68
2022-09-21T03:37:58.158Z,13.67
2022-09-21T03:40:26.917Z,13.66
2022-09-21T03:42:55.486Z,13.66
2022-09-21T03:45:24.773Z,13.56
2022-09-21T03:47:55.800Z,13.65
2022-09-21T03:50:25.264Z,13.63
2022-09-21T03:52:53.119Z,13.62
2022-09-21T03:55:21.661Z,13.60
2022-09-21T03:57:49.586Z,13.59
2022-09-21T04:00:17.446Z,13.58
2022-09-21T04:02:45.354Z,13.56
2022-09-21T04:05:16.031Z,13.54
2022-09-21T04:07:46.777Z,13.47
2022-09-21T04:10:16.501Z,13.52
2022-09-21T04:12:45.152Z,13.52
2022-09-21T04:15:15.608Z,13.52
2022-09-21T04:17:43.602Z,13.51
2022-09-21T04:20:11.419Z,13.52
2022-09-21T04:22:43.397Z,13.50
2022-09-21T04:25:13.221Z,13.48
2022-09-21T04:27:41.376Z,13.47
2022-09-21T04:30:11.515Z,13.46
2022-09-21T04:32:39.209Z,13.46
2022-09-21T04:35:07.432Z,13.45
2022-09-21T04:37:35.201Z,13.44
2022-09-21T04:40:04.610Z,13.45
2022-09-21T04:42:33.922Z,13.43
2022-09-21T04:45:01.742Z,13.43
2022-09-21T04:47:31.083Z,13.42
2022-09-21T04:49:58.791Z,13.42
2022-09-21T04:52:26.739Z,13.41
2022-09-21T04:54:54.452Z,13.32
2022-09-21T04:57:22.140Z,13.40
2022-09-21T04:59:51.252Z,13.37
2022-09-21T05:02:19.051Z,13.38
2022-09-21T05:04:50.778Z,13.38
2022-09-21T05:07:18.998Z,13.30
2022-09-21T05:10:04.104Z,13.36
2022-09-21T05:12:33.223Z,13.37
2022-09-21T05:15:02.474Z,13.37
2022-09-21T05:17:30.471Z,13.35
2022-09-21T05:19:58.190Z,13.35
2022-09-21T05:22:26.041Z,13.35
2022-09-21T05:24:53.723Z,13.33
2022-09-21T05:27:21.567Z,13.34
2022-09-21T05:29:49.883Z,13.31
2022-09-21T05:32:26.341Z,13.32
2022-09-21T05:35:02.316Z,13.31
2022-09-21T05:37:53.232Z,13.30
2022-09-21T05:40:21.867Z,13.33
2022-09-21T05:42:50.282Z,13.32
2022-09-21T05:45:21.079Z,13.29
2022-09-21T05:48:08.234Z,13.31
2022-09-21T05:50:46.880Z,13.29
2022-09-21T05:53:30.083Z,13.27
2022-09-21T05:56:00.777Z,13.23
2022-09-21T05:58:38.096Z,13.26
2022-09-21T06:01:19.641Z,13.27
2022-09-21T06:03:50.214Z,13.25
2022-09-21T06:06:18.614Z,13.25
2022-09-21T06:08:46.376Z,13.24
2022-09-21T06:11:15.858Z,13.25
2022-09-21T06:13:43.827Z,13.25
2022-09-21T06:16:11.923Z,13.24
2022-09-21T06:18:40.501Z,13.22
2022-09-21T06:21:10.060Z,13.23
2022-09-21T06:23:38.667Z,13.23
2022-09-21T06:26:06.768Z,13.17
2022-09-21T06:28:34.663Z,13.25
2022-09-21T06:31:02.489Z,13.26
2022-09-21T06:33:30.234Z,13.26
2022-09-21T06:35:59.868Z,13.28
2022-09-21T06:38:30.203Z,13.24
2022-09-21T06:41:02.612Z,13.29
2022-09-21T06:43:30.836Z,13.30
2022-09-21T06:46:00.473Z,13.30
2022-09-21T06:48:29.244Z,13.31
2022-09-21T06:50:59.429Z,13.31
2022-09-21T06:53:29.748Z,13.32
2022-09-21T06:56:02.149Z,13.32
2022-09-21T06:58:31.000Z,13.33
2022-09-21T07:00:58.946Z,13.25
2022-09-21T07:03:26.766Z,13.32
2022-09-21T07:05:54.512Z,13.31
2022-09-21T07:11:13.172Z,13.30
2022-09-21T07:13:40.943Z,13.29
2022-09-21T07:16:10.153Z,13.29
2022-09-21T07:18:44.050Z,13.30
2022-09-21T07:21:13.180Z,13.30
2022-09-21T07:23:41.067Z,13.29
2022-09-21T07:26:10.639Z,13.31
2022-09-21T07:28:40.639Z,13.32
2022-09-21T07:31:10.137Z,13.33
2022-09-21T07:33:38.219Z,13.34
2022-09-21T07:36:10.482Z,13.35
2022-09-21T07:38:39.574Z,13.34
2022-09-21T07:41:07.994Z,13.34
2022-09-21T07:43:35.782Z,13.34
2022-09-21T07:46:04.899Z,13.37
2022-09-21T07:48:32.712Z,13.37
2022-09-21T07:51:06.235Z,13.34
2022-09-21T07:53:34.535Z,13.38
2022-09-21T07:56:03.520Z,13.39
2022-09-21T07:58:49.339Z,13.38
2022-09-21T08:01:19.008Z,13.41
2022-09-21T08:03:49.748Z,13.42
2022-09-21T08:06:17.733Z,13.41
2022-09-21T08:08:45.783Z,13.41
2022-09-21T08:11:13.527Z,13.41
2022-09-21T08:13:41.301Z,13.43
2022-09-21T08:16:09.048Z,13.42
2022-09-21T08:18:40.093Z,13.42
2022-09-21T08:21:09.947Z,13.34
2022-09-21T08:23:43.056Z,13.34
2022-09-21T08:26:18.641Z,13.46
2022-09-21T08:28:49.430Z,13.46
2022-09-21T08:31:19.678Z,13.46
2022-09-21T08:33:49.811Z,13.48
2022-09-21T08:36:17.966Z,13.48
2022-09-21T08:38:45.770Z,13.48
2022-09-21T08:41:17.840Z,13.46
2022-09-21T08:43:50.089Z,13.50
2022-09-21T08:46:19.952Z,13.52
2022-09-21T08:48:54.554Z,13.54
2022-09-21T08:51:25.519Z,13.54
2022-09-21T08:53:56.933Z,13.56
2022-09-21T08:56:37.007Z,13.59
2022-09-21T08:59:15.755Z,13.61
2022-09-21T09:01:58.382Z,13.65
2022-09-21T09:04:54.055Z,13.66
2022-09-21T09:07:43.394Z,13.66
2022-09-21T09:10:27.017Z,13.69
2022-09-21T09:13:05.014Z,13.62
2022-09-21T09:15:51.858Z,13.73
2022-09-21T09:18:25.583Z,13.75
2022-09-21T09:20:59.251Z,13.76
2022-09-21T09:23:30.019Z,13.70
2022-09-21T09:26:02.262Z,13.80
2022-09-21T09:28:34.471Z,13.81
2022-09-21T09:31:06.887Z,13.82
2022-09-21T09:33:49.482Z,13.87
2022-09-21T09:36:30.043Z,13.84
2022-09-21T09:39:12.825Z,13.95
2022-09-21T09:42:00.539Z,13.94
2022-09-21T09:44:44.936Z,13.97
2022-09-21T09:47:23.165Z,14.00
2022-09-21T09:50:04.385Z,14.00
2022-09-21T09:52:34.556Z,14.02
2022-09-21T09:55:11.802Z,14.08
2022-09-21T09:57:39.806Z,14.10
2022-09-21T10:00:12.195Z,14.11
2022-09-21T10:02:48.235Z,14.21
2022-09-21T10:05:22.822Z,14.24
2022-09-21T10:07:53.216Z,14.18
2022-09-21T10:10:33.185Z,14.29
2022-09-21T10:13:11.546Z,14.33
2022-09-21T10:15:44.938Z,14.36
2022-09-21T10:18:21.949Z,14.40
2022-09-21T10:20:59.795Z,14.43
2022-09-21T10:23:30.249Z,14.46
2022-09-21T10:26:01.329Z,14.50
2022-09-21T10:28:30.062Z,14.47
2022-09-21T10:31:14.413Z,14.49
2022-09-21T10:33:53.463Z,14.61
2022-09-21T10:36:33.052Z,14.63
2022-09-21T10:39:24.597Z,14.66
2022-09-21T10:41:56.002Z,14.67
2022-09-21T10:44:27.164Z,14.68
2022-09-21T10:49:30.479Z,14.73
2022-09-21T10:52:00.333Z,14.76
2022-09-21T10:54:34.242Z,14.78
2022-09-21T10:57:15.302Z,14.79
2022-09-21T10:59:43.191Z,14.82
2022-09-21T11:02:29.635Z,14.85
2022-09-21T11:05:02.316Z,14.80
2022-09-21T11:07:34.541Z,14.94
2022-09-21T11:10:12.221Z,14.99
2022-09-21T11:12:50.490Z,15.02
2022-09-21T11:15:39.994Z,15.09
2022-09-21T11:18:15.044Z,15.10
2022-09-21T11:20:48.370Z,15.13
2022-09-21T11:23:30.796Z,15.17
2022-09-21T11:26:06.689Z,15.19
2022-09-21T11:28:41.852Z,15.22
2022-09-21T11:31:41.045Z,15.26
2022-09-21T11:34:31.049Z,15.30
2022-09-21T11:37:11.009Z,15.32
2022-09-21T11:39:52.092Z,15.32
2022-09-21T11:42:35.947Z,15.35
2022-09-21T11:45:12.375Z,15.37
2022-09-21T11:48:03.526Z,15.33
2022-09-21T11:50:57.518Z,15.41
2022-09-21T11:53:37.075Z,15.41
2022-09-21T11:56:27.044Z,15.43
2022-09-21T11:59:07.419Z,15.44
2022-09-21T12:01:56.505Z,15.44
2022-09-21T12:04:44.364Z,15.46
2022-09-21T12:07:25.030Z,15.46
2022-09-21T12:10:23.899Z,15.48
2022-09-21T12:12:58.645Z,15.48
2022-09-21T12:15:35.992Z,15.49
2022-09-21T12:18:10.029Z,15.50
2022-09-21T12:20:45.735Z,15.53
2022-09-21T12:23:18.411Z,15.54
2022-09-21T12:25:53.365Z,15.58
2022-09-21T12:28:25.868Z,15.61
2022-09-21T12:31:01.896Z,15.60
2022-09-21T12:33:40.444Z,15.64
2022-09-21T12:36:17.150Z,15.68
2022-09-21T12:38:47.128Z,15.69
2022-09-21T12:41:19.810Z,15.75
2022-09-21T12:43:53.145Z,15.82
2022-09-21T12:46:27.080Z,15.84
2022-09-21T12:48:55.145Z,15.86
2022-09-21T12:51:28.402Z,15.85
2022-09-21T12:54:00.555Z,15.87
2022-09-21T12:56:37.164Z,15.82
2022-09-21T12:59:14.829Z,15.90
2022-09-21T13:01:54.822Z,15.94
2022-09-21T13:04:45.264Z,15.96
2022-09-21T13:07:34.832Z,15.99
2022-09-21T13:10:15.675Z,16.02
2022-09-21T13:12:47.241Z,16.04
2022-09-21T13:15:21.957Z,16.07
2022-09-21T13:18:05.708Z,16.02
2022-09-21T13:20:40.442Z,16.13
2022-09-21T13:23:17.568Z,16.16
2022-09-21T13:25:50.860Z,16.20
2022-09-21T13:28:23.893Z,16.22
2022-09-21T13:31:47.220Z,16.25
2022-09-21T13:34:24.529Z,16.30
2022-09-21T13:37:27.622Z,16.32
2022-09-21T13:40:44.371Z,16.37
2022-09-21T13:43:25.348Z,16.39
2022-09-21T13:45:56.763Z,16.38
2022-09-21T13:48:29.824Z,16.36
2022-09-21T13:51:07.990Z,16.37
2022-09-21T13:53:41.145Z,16.36
2022-09-21T13:56:20.558Z,16.36
2022-09-21T13:58:52.154Z,16.32
2022-09-21T14:04:21.711Z,16.45
2022-09-21T14:06:53.385Z,16.49
2022-09-21T14:09:26.113Z,16.51
2022-09-21T14:11:58.102Z,16.54
2022-09-21T14:14:30.622Z,16.57
2022-09-21T14:17:00.378Z,16.58
2022-09-21T14:20:06.179Z,16.60
2022-09-21T14:22:38.909Z,16.62
2022-09-21T14:25:48.855Z,16.62
2022-09-21T14:28:18.345Z,16.62
2022-09-21T14:30:54.467Z,16.63
2022-09-21T14:33:30.074Z,16.66
2022-09-21T14:35:59.108Z,16.67
2022-09-21T14:38:32.332Z,16.68
2022-09-21T14:41:03.713Z,16.69
2022-09-21T14:43:35.230Z,16.70
2022-09-21T14:46:17.085Z,16.70
2022-09-21T14:48:55.376Z,16.70
2022-09-21T14:51:38.192Z,16.69
2022-09-21T14:54:26.101Z,16.68
2022-09-21T14:57:10.927Z,16.68
2022-09-21T14:59:55.127Z,16.70
2022-09-21T15:02:25.631Z,16.71
2022-09-21T15:05:05.576Z,16.74
2022-09-21T15:07:59.549Z,16.75
2022-09-21T15:10:53.071Z,16.74
2022-09-21T15:13:39.058Z,16.71
2022-09-21T15:16:21.846Z,16.71
2022-09-21T15:18:51.324Z,16.69
2022-09-21T15:21:26.531Z,16.68
2022-09-21T15:23:55.146Z,16.68
2022-09-21T15:26:29.461Z,16.62
2022-09-21T15:29:09.252Z,16.68
2022-09-21T15:31:39.755Z,16.68
2022-09-21T15:34:08.867Z,16.70
2022-09-21T15:36:40.227Z,16.70
2022-09-21T15:39:09.450Z,16.70
2022-09-21T15:41:49.539Z,16.70
2022-09-21T15:44:18.995Z,16.70
2022-09-21T15:46:51.458Z,16.70
2022-09-21T15:49:21.380Z,16.70
2022-09-21T15:51:54.055Z,16.70
2022-09-21T15:54:32.637Z,16.69
2022-09-21T15:57:08.459Z,16.69
2022-09-21T15:59:36.830Z,16.69
2022-09-21T16:02:13.437Z,16.68
2022-09-21T16:04:49.279Z,16.68
2022-09-21T16:07:27.021Z,16.69
2022-09-21T16:09:55.188Z,16.69
2022-09-21T16:12:44.702Z,16.69
2022-09-21T16:15:24.427Z,16.70
2022-09-21T16:18:02.949Z,16.68
2022-09-21T16:20:43.342Z,16.67
2022-09-21T16:23:17.263Z,16.67
2022-09-21T16:25:46.031Z,16.67
2022-09-21T16:28:36.595Z,16.66
2022-09-21T16:31:37.305Z,16.65
2022-09-21T16:34:35.468Z,16.64
2022-09-21T16:37:24.336Z,16.62
2022-09-21T16:39:52.962Z,16.62
2022-09-21T16:42:21.263Z,16.63
2022-09-21T16:44:51.459Z,16.63
2022-09-21T16:47:25.373Z,16.62
2022-09-21T16:49:55.372Z,16.61
2022-09-21T16:52:23.430Z,16.60
2022-09-21T16:54:51.184Z,16.61
2022-09-21T16:57:19.740Z,16.60
2022-09-21T16:59:47.945Z,16.60
2022-09-21T17:02:18.325Z,16.58
2022-09-21T17:04:47.903Z,16.58
2022-09-21T17:07:16.798Z,16.57
2022-09-21T17:09:47.739Z,16.50
2022-09-21T17:12:18.241Z,16.55
2022-09-21T17:14:47.285Z,16.47
2022-09-21T17:17:20.363Z,16.54
2022-09-21T17:19:49.971Z,16.52
2022-09-21T17:22:18.517Z,16.52
2022-09-21T17:24:50.690Z,16.52
2022-09-21T17:27:19.696Z,16.52
2022-09-21T17:29:49.298Z,16.52
2022-09-21T17:32:20.871Z,16.50
2022-09-21T17:34:52.611Z,16.51
2022-09-21T17:37:21.891Z,16.51
2022-09-21T17:39:49.892Z,16.49
2022-09-21T17:42:21.220Z,16.48
2022-09-21T17:45:03.868Z,16.46
2022-09-21T17:47:34.063Z,16.45
2022-09-21T17:50:16.760Z,16.43
2022-09-21T17:53:03.077Z,16.40
2022-09-21T17:55:32.083Z,16.42
2022-09-21T17:58:20.243Z,16.41
2022-09-21T18:00:57.323Z,16.38
2022-09-21T18:03:28.784Z,16.39
2022-09-21T18:06:00.584Z,16.38
2022-09-21T18:08:29.176Z,16.36
2022-09-21T18:11:04.380Z,16.35
2022-09-21T18:13:41.236Z,16.34
2022-09-21T18:16:24.334Z,16.33
2022-09-21T18:19:02.470Z,16.31
2022-09-21T18:21:31.127Z,16.28
2022-09-21T18:24:16.076Z,16.28
2022-09-21T18:26:44.338Z,16.19
2022-09-21T18:29:39.351Z,16.25
2022-09-21T18:32:28.760Z,16.24
2022-09-21T18:35:12.491Z,16.21
2022-09-21T18:37:49.806Z,16.21
2022-09-21T18:40:25.819Z,16.19
2022-09-21T18:43:00.554Z,16.18
2022-09-21T18:45:31.900Z,16.10
2022-09-21T18:48:17.452Z,16.16
2022-09-21T18:50:53.762Z,16.14
2022-09-21T18:53:26.684Z,16.13
2022-09-21T18:55:54.870Z,16.12
2022-09-21T18:58:22.964Z,16.10
2022-09-21T19:00:52.044Z,16.07
2022-09-21T19:03:20.690Z,16.08
2022-09-21T19:05:59.687Z,16.06
2022-09-21T19:08:32.767Z,16.05
2022-09-21T19:11:09.528Z,16.04
2022-09-21T19:13:47.526Z,16.04
2022-09-21T19:16:25.513Z,16.02
2022-09-21T19:19:02.435Z,16.01
2022-09-21T19:21:41.231Z,15.99
2022-09-21T19:24:19.541Z,15.98
2022-09-21T19:27:04.702Z,15.97
2022-09-21T19:29:45.686Z,15.97
2022-09-21T19:32:16.958Z,15.95
2022-09-21T19:34:45.101Z,15.93
2022-09-21T19:37:14.419Z,15.91
2022-09-21T19:39:42.536Z,15.90
2022-09-21T19:42:25.389Z,15.78
2022-09-21T19:45:07.894Z,15.86
2022-09-21T19:47:41.441Z,15.83
2022-09-21T19:50:17.833Z,15.83
2022-09-21T19:52:47.733Z,15.81
2022-09-21T19:55:35.627Z,15.79
2022-09-21T19:58:21.978Z,15.78
2022-09-21T20:00:54.311Z,15.68
2022-09-21T20:03:31.592Z,15.75
2022-09-21T20:06:07.031Z,15.74
2022-09-21T20:08:43.086Z,15.74
2022-09-21T20:11:14.332Z,15.72
2022-09-21T20:13:57.738Z,15.71
2022-09-21T20:16:34.083Z,15.70
2022-09-21T20:19:16.964Z,15.67
2022-09-21T20:21:46.335Z,15.67
2022-09-21T20:24:25.060Z,15.66
2022-09-21T20:26:53.115Z,15.66
2022-09-21T20:29:21.889Z,15.64
2022-09-21T20:31:52.294Z,15.64
2022-09-21T20:34:20.774Z,15.62
2022-09-21T20:36:48.577Z,15.61
2022-09-21T20:39:16.317Z,15.61
2022-09-21T20:41:45.417Z,15.54
2022-09-21T20:44:14.432Z,15.59
2022-09-21T20:46:42.243Z,15.58
2022-09-21T20:49:10.104Z,15.59
2022-09-21T20:51:38.672Z,15.58
2022-09-21T20:54:07.078Z,15.57
2022-09-21T20:56:34.971Z,15.55
2022-09-21T20:59:04.193Z,15.55
2022-09-21T21:01:31.984Z,15.53
2022-09-21T21:04:02.981Z,15.45
2022-09-21T21:06:32.778Z,15.50
2022-09-21T21:09:01.009Z,15.50
2022-09-21T21:11:28.960Z,15.48
2022-09-21T21:13:57.387Z,15.48
2022-09-21T21:16:26.591Z,15.47
2022-09-21T21:18:54.456Z,15.46
2022-09-21T21:21:24.607Z,15.45
2022-09-21T21:24:25.201Z,15.44
2022-09-21T21:27:02.555Z,15.40
2022-09-21T21:29:31.397Z,15.39
2022-09-21T21:32:00.795Z,15.36
2022-09-21T21:34:29.214Z,15.35
2022-09-21T21:36:57.103Z,15.34
2022-09-21T21:39:25.033Z,15.32
2022-09-21T21:41:53.138Z,15.33
2022-09-21T21:44:20.838Z,15.30
2022-09-21T21:46:48.704Z,15.29
2022-09-21T21:49:18.035Z,15.27
2022-09-21T21:51:45.722Z,15.27
2022-09-21T21:54:13.453Z,15.24
2022-09-21T21:56:41.166Z,15.24
2022-09-21T21:59:08.925Z,15.23
2022-09-21T22:01:39.215Z,15.22
2022-09-21T22:04:07.347Z,15.20
2022-09-21T22:06:37.928Z,15.19
2022-09-21T22:09:07.588Z,15.16
2022-09-21T22:11:35.780Z,15.15
2022-09-21T22:14:05.216Z,15.14
2022-09-21T22:16:34.894Z,15.12
2022-09-21T22:19:05.024Z,15.09
2022-09-21T22:21:35.215Z,15.09
2022-09-21T22:24:05.898Z,15.07
2022-09-21T22:26:37.286Z,15.06
2022-09-21T22:29:06.852Z,15.05
2022-09-21T22:31:37.575Z,15.03
2022-09-21T22:34:05.587Z,15.02
2022-09-21T22:36:35.679Z,15.01
2022-09-21T22:39:06.122Z,15.00
2022-09-21T22:41:36.791Z,14.98
2022-09-21T22:44:05.152Z,14.98
2022-09-21T22:46:33.434Z,14.96
2022-09-21T22:49:01.620Z,14.96
2022-09-21T22:51:29.961Z,14.84
2022-09-21T22:53:57.828Z,14.93
2022-09-21T22:56:29.271Z,14.84
2022-09-21T22:58:58.919Z,14.91
2022-09-21T23:01:29.329Z,14.90
2022-09-21T23:03:58.845Z,14.88
2022-09-21T23:06:29.170Z,14.86
2022-09-21T23:08:59.116Z,14.86
2022-09-21T23:11:30.232Z,14.85
2022-09-21T23:13:59.053Z,14.84
2022-09-21T23:16:28.687Z,14.83
2022-09-21T23:18:57.785Z,14.82
2022-09-21T23:21:27.329Z,14.81
2022-09-21T23:23:56.817Z,14.79
2022-09-21T23:26:26.106Z,14.78
2022-09-21T23:28:57.089Z,14.76
2022-09-21T23:31:26.646Z,14.73
2022-09-21T23:33:56.904Z,14.73
2022-09-21T23:36:26.701Z,14.71
2022-09-21T23:38:54.731Z,14.70
2022-09-21T23:41:24.501Z,14.69
2022-09-21T23:43:52.862Z,14.67
2022-09-21T23:46:24.899Z,14.58
2022-09-21T23:48:53.245Z,14.64
2022-09-21T23:51:21.423Z,14.63
2022-09-21T23:53:49.194Z,14.62
2022-09-21T23:56:19.187Z,14.51
2022-09-21T23:58:47.150Z,14.59
